Time;durP1;ratioP1;P1;durP2;ratioP2;P2;SDS_P1;SDS_P2;PMS_P1;PMS_P2;Temp;Humidity;BMP_temperature;BMP_pressure;BME280_temperature;BME280_humidity;BME280_pressure;Samples;Min_cycle;Max_cycle;Signal;HPM_P1;HPM_P2
2021/12/29 00:01:27;;;;;;;3.47;0.90;;;21.50;99.90;;;;;;5002406;28;20209;-68
2021/12/29 00:03:55;;;;;;;1.33;0.50;;;21.60;99.90;;;;;;5009406;28;20196;-67
2021/12/29 00:06:23;;;;;;;3.53;0.70;;;21.70;99.90;;;;;;4992887;28;20244;-68
2021/12/29 00:08:50;;;;;;;3.67;0.90;;;21.50;99.90;;;;;;5007882;28;20218;-68
2021/12/29 00:11:18;;;;;;;4.87;0.70;;;21.40;99.90;;;;;;4993379;28;20226;-66
2021/12/29 00:13:46;;;;;;;2.67;0.80;;;21.30;99.90;;;;;;4992471;28;20187;-67
2021/12/29 00:16:14;;;;;;;6.37;1.20;;;21.30;99.90;;;;;;4992316;28;20237;-68
2021/12/29 00:18:41;;;;;;;5.97;1.27;;;21.10;99.90;;;;;;5002583;28;20206;-67
2021/12/29 00:21:10;;;;;;;9.10;1.30;;;20.90;99.90;;;;;;4988839;28;20178;-69
2021/12/29 00:23:38;;;;;;;5.60;0.90;;;20.80;99.90;;;;;;4999032;28;20264;-67
2021/12/29 00:26:06;;;;;;;9.10;1.23;;;20.80;99.90;;;;;;4996719;28;20261;-68
2021/12/29 00:28:33;;;;;;;5.10;1.67;;;20.60;99.90;;;;;;4998884;28;20200;-69
2021/12/29 00:31:01;;;;;;;3.10;1.07;;;20.20;99.90;;;;;;5010194;28;20229;-69
2021/12/29 00:33:29;;;;;;;2.90;1.00;;;20.20;99.90;;;;;;4992315;28;20626;-69
2021/12/29 00:35:56;;;;;;;3.27;1.00;;;20.20;99.90;;;;;;4995507;28;20200;-68
2021/12/29 00:38:24;;;;;;;5.97;1.53;;;20.10;99.90;;;;;;4998380;28;20192;-69
2021/12/29 00:40:52;;;;;;;3.43;0.70;;;20.20;99.90;;;;;;4975111;28;20200;-69
2021/12/29 00:43:20;;;;;;;4.00;1.17;;;20.20;99.90;;;;;;5011665;28;20651;-68
2021/12/29 00:45:50;;;;;;;7.47;1.43;;;20.20;99.90;;;;;;4992122;28;20182;-69
2021/12/29 00:48:19;;;;;;;2.93;1.20;;;20.30;99.90;;;;;;4992003;28;20548;-69
2021/12/29 00:50:47;;;;;;;3.47;0.90;;;20.30;99.90;;;;;;5008002;28;20189;-69
2021/12/29 00:53:16;;;;;;;6.50;1.80;;;20.40;99.90;;;;;;5010227;28;20340;-69
2021/12/29 00:55:44;;;;;;;4.20;1.33;;;20.40;99.90;;;;;;5007801;28;20192;-69
2021/12/29 00:58:11;;;;;;;7.00;2.00;;;20.30;99.90;;;;;;5012443;28;20182;-68
2021/12/29 01:00:41;;;;;;;4.97;1.17;;;20.40;99.90;;;;;;5013195;28;20183;-68
2021/12/29 01:03:11;;;;;;;4.47;1.17;;;20.50;99.90;;;;;;4978433;28;20187;-68
2021/12/29 01:05:39;;;;;;;5.87;1.13;;;20.50;99.90;;;;;;4995630;28;20941;-68
2021/12/29 01:08:07;;;;;;;10.47;1.77;;;20.40;99.90;;;;;;5001871;28;20648;-69
2021/12/29 01:10:36;;;;;;;2.23;1.03;;;20.60;99.90;;;;;;4995646;28;20218;-68
2021/12/29 01:13:06;;;;;;;7.47;1.30;;;20.80;99.90;;;;;;5000895;28;20189;-68
2021/12/29 01:15:55;;;;;;;3.73;0.90;;;20.80;99.90;;;;;;5000924;28;20607;-68
2021/12/29 01:18:23;;;;;;;3.53;1.03;;;20.90;99.90;;;;;;5011743;28;20250;-68
2021/12/29 01:20:51;;;;;;;4.57;0.93;;;21.20;99.90;;;;;;5013458;28;20189;-68
2021/12/29 01:23:19;;;;;;;2.83;0.97;;;21.30;99.90;;;;;;5014953;28;20220;-68
2021/12/29 01:25:47;;;;;;;2.73;0.80;;;21.50;99.90;;;;;;5013386;28;20193;-67
2021/12/29 01:28:15;;;;;;;2.00;0.90;;;21.70;99.90;;;;;;5014896;28;20182;-68
2021/12/29 01:30:43;;;;;;;6.23;1.20;;;21.60;99.90;;;;;;5012729;28;20231;-68
2021/12/29 01:33:11;;;;;;;9.43;0.87;;;21.50;99.90;;;;;;5007373;28;20189;-68
2021/12/29 01:35:41;;;;;;;4.90;0.90;;;21.60;99.90;;;;;;4994167;28;20652;-68
2021/12/29 01:38:10;;;;;;;2.60;0.93;;;21.90;99.90;;;;;;5000429;28;20186;-69
2021/12/29 01:40:39;;;;;;;3.07;0.93;;;21.70;99.90;;;;;;5011983;28;20194;-68
2021/12/29 01:43:09;;;;;;;4.17;1.03;;;21.60;99.90;;;;;;5023784;28;20208;-69
2021/12/29 01:45:37;;;;;;;3.30;0.70;;;21.70;99.90;;;;;;5001037;28;20666;-68
2021/12/29 01:48:06;;;;;;;2.57;0.73;;;21.80;99.90;;;;;;4996224;28;20190;-68
2021/12/29 01:50:35;;;;;;;3.87;0.70;;;21.70;99.90;;;;;;5001626;28;20275;-68
2021/12/29 01:53:08;;;;;;;4.07;0.97;;;21.80;99.90;;;;;;4998542;28;20257;-69
2021/12/29 01:55:38;;;;;;;0.73;0.47;;;21.70;99.90;;;;;;5004041;28;20643;-70
2021/12/29 01:58:07;;;;;;;4.90;0.90;;;21.90;99.90;;;;;;4994919;28;20273;-69
2021/12/29 02:00:37;;;;;;;1.60;0.70;;;22.10;99.90;;;;;;4994763;28;20194;-69
2021/12/29 02:03:08;;;;;;;3.13;1.00;;;22.30;99.90;;;;;;5000244;28;20278;-69
2021/12/29 02:05:37;;;;;;;2.63;0.90;;;22.30;99.90;;;;;;5016657;28;20236;-69
2021/12/29 02:08:06;;;;;;;2.73;1.07;;;22.30;99.90;;;;;;5014316;28;20192;-70
2021/12/29 02:10:42;;;;;;;2.83;0.90;;;22.60;99.90;;;;;;5012865;28;20218;-69
2021/12/29 02:13:11;;;;;;;3.73;0.93;;;22.80;99.90;;;;;;5014386;28;20267;-69
2021/12/29 02:15:39;;;;;;;2.40;1.10;;;22.80;99.90;;;;;;5007898;28;20599;-69
2021/12/29 02:18:18;;;;;;;7.20;0.83;;;23.00;99.90;;;;;;4997066;28;20178;-70
2021/12/29 02:20:53;;;;;;;4.17;0.80;;;23.00;99.90;;;;;;4991708;28;20194;-71
2021/12/29 02:23:32;;;;;;;1.70;0.60;;;23.00;99.90;;;;;;5003128;28;20188;-71
2021/12/29 02:26:00;;;;;;;4.20;0.70;;;22.70;99.90;;;;;;4976892;28;20198;-70
2021/12/29 02:28:34;;;;;;;1.73;0.60;;;22.90;99.90;;;;;;4994326;28;20294;-71
2021/12/29 02:31:03;;;;;;;3.43;1.17;;;23.20;99.90;;;;;;4976884;28;20237;-69
2021/12/29 02:33:31;;;;;;;0.70;0.50;;;23.30;99.90;;;;;;4994558;28;20183;-70
2021/12/29 02:36:01;;;;;;;4.37;0.90;;;23.40;99.90;;;;;;4976661;28;20554;-72
2021/12/29 02:38:30;;;;;;;2.70;0.70;;;23.70;99.90;;;;;;4976943;28;20199;-72
2021/12/29 02:41:03;;;;;;;2.07;0.67;;;23.90;99.90;;;;;;4994253;28;20186;-70
2021/12/29 02:43:36;;;;;;;5.73;0.63;;;24.00;99.90;;;;;;4994463;28;20189;-71
2021/12/29 02:46:11;;;;;;;2.93;0.70;;;24.10;99.90;;;;;;4994741;28;20186;-70
2021/12/29 02:48:44;;;;;;;3.07;0.50;;;24.40;99.90;;;;;;4994217;28;20216;-71
2021/12/29 02:51:12;;;;;;;21.03;2.10;;;24.80;99.90;;;;;;4994337;28;20178;-71
2021/12/29 02:53:40;;;;;;;2.60;0.60;;;25.20;99.90;;;;;;4994230;28;20265;-71
2021/12/29 02:56:08;;;;;;;3.13;0.50;;;25.50;99.90;;;;;;4994037;28;20691;-71
2021/12/29 02:58:36;;;;;;;3.77;0.70;;;25.60;99.90;;;;;;4976517;28;20182;-72
2021/12/29 03:01:10;;;;;;;1.50;0.70;;;25.60;99.90;;;;;;4993776;28;20217;-72
2021/12/29 03:03:38;;;;;;;7.40;1.00;;;25.70;99.90;;;;;;4993836;28;20170;-71
2021/12/29 03:06:07;;;;;;;1.40;0.67;;;25.50;99.90;;;;;;4997488;28;20187;-71
2021/12/29 03:08:36;;;;;;;6.83;0.90;;;25.50;99.90;;;;;;4997126;28;20241;-71
2021/12/29 03:11:06;;;;;;;2.77;0.73;;;25.50;99.90;;;;;;4993636;28;20179;-71
2021/12/29 03:13:36;;;;;;;2.40;0.53;;;25.50;99.90;;;;;;4993921;28;20182;-70
2021/12/29 03:16:05;;;;;;;1.73;0.70;;;25.80;99.90;;;;;;4993634;28;20675;-71
2021/12/29 03:18:33;;;;;;;3.23;0.57;;;26.10;99.90;;;;;;4993768;28;20182;-71
2021/12/29 03:21:01;;;;;;;1.63;0.60;;;25.50;99.90;;;;;;4993236;28;20170;-71
2021/12/29 03:23:30;;;;;;;4.83;0.70;;;25.40;99.90;;;;;;4976228;28;20186;-71
2021/12/29 03:25:58;;;;;;;4.77;0.83;;;26.10;99.90;;;;;;4993184;28;20174;-71
2021/12/29 03:28:26;;;;;;;2.23;0.60;;;26.50;99.90;;;;;;4993437;28;20171;-71
2021/12/29 03:30:56;;;;;;;3.63;0.87;;;26.80;99.90;;;;;;4993112;28;20226;-71
2021/12/29 03:33:28;;;;;;;2.87;0.70;;;27.00;99.90;;;;;;4992400;28;20182;-70
2021/12/29 03:36:03;;;;;;;7.00;0.70;;;26.40;99.90;;;;;;4993173;28;20244;-70
2021/12/29 03:38:37;;;;;;;3.70;0.80;;;26.80;99.90;;;;;;4993202;28;20234;-71
2021/12/29 03:41:08;;;;;;;1.73;0.57;;;27.40;99.90;;;;;;4993236;28;20190;-71
2021/12/29 03:43:36;;;;;;;1.13;0.70;;;28.40;99.90;;;;;;4993497;28;20270;-70
2021/12/29 03:46:07;;;;;;;6.23;0.70;;;28.10;99.90;;;;;;4993069;28;20561;-71
2021/12/29 03:48:37;;;;;;;1.00;0.47;;;27.70;99.90;;;;;;4992905;28;20193;-70
2021/12/29 03:51:06;;;;;;;3.87;0.60;;;27.00;99.90;;;;;;4992906;28;20202;-70
2021/12/29 03:53:34;;;;;;;3.67;0.40;;;26.60;99.90;;;;;;4993059;28;20178;-71
2021/12/29 03:56:02;;;;;;;2.40;0.57;;;26.10;99.90;;;;;;4992889;28;20644;-71
2021/12/29 03:58:31;;;;;;;1.03;0.30;;;25.50;99.90;;;;;;4975486;28;20179;-70
2021/12/29 04:01:03;;;;;;;1.20;0.50;;;25.10;99.90;;;;;;4992907;28;20171;-70
2021/12/29 04:03:31;;;;;;;4.67;0.70;;;25.60;99.90;;;;;;4992835;28;20206;-71
2021/12/29 04:05:59;;;;;;;3.20;0.60;;;26.60;99.90;;;;;;4992811;28;20183;-70
2021/12/29 04:08:27;;;;;;;3.77;0.63;;;27.80;99.90;;;;;;4992738;28;20171;-71
2021/12/29 04:10:55;;;;;;;1.37;0.40;;;27.70;99.90;;;;;;4992636;28;20201;-70
2021/12/29 04:13:23;;;;;;;1.27;0.47;;;27.40;99.90;;;;;;4993555;28;20175;-70
2021/12/29 04:15:52;;;;;;;0.50;0.30;;;26.90;99.90;;;;;;4999276;28;20244;-71
2021/12/29 04:18:26;;;;;;;1.60;0.37;;;27.10;99.90;;;;;;5003321;28;20185;-70
2021/12/29 04:21:02;;;;;;;3.17;0.60;;;27.20;99.90;;;;;;4986865;28;20227;-71
2021/12/29 04:23:37;;;;;;;2.20;0.50;;;28.10;99.90;;;;;;5000521;28;20193;-71
2021/12/29 04:26:08;;;;;;;1.50;0.67;;;27.50;99.90;;;;;;4996105;28;20279;-71
2021/12/29 04:28:35;;;;;;;1.83;0.50;;;27.00;99.90;;;;;;5013349;28;20205;-71
2021/12/29 04:31:07;;;;;;;2.40;0.60;;;27.10;99.90;;;;;;5012967;28;20272;-73
2021/12/29 04:33:36;;;;;;;3.57;0.63;;;27.40;99.90;;;;;;5008730;28;20242;-72
2021/12/29 04:36:05;;;;;;;1.03;0.33;;;27.80;99.90;;;;;;5012806;28;20233;-70
2021/12/29 04:38:33;;;;;;;3.00;0.40;;;28.10;99.90;;;;;;5013091;28;20197;-70
2021/12/29 04:41:01;;;;;;;2.13;0.60;;;28.30;99.90;;;;;;5013084;28;20174;-72
2021/12/29 04:43:28;;;;;;;1.80;0.30;;;27.70;99.90;;;;;;5003660;28;20186;-72
2021/12/29 04:45:56;;;;;;;1.70;0.30;;;27.80;99.90;;;;;;4993398;28;20225;-71
2021/12/29 04:48:24;;;;;;;1.53;0.30;;;27.70;99.90;;;;;;4993933;28;20195;-72
2021/12/29 04:51:02;;;;;;;1.53;0.50;;;28.10;99.90;;;;;;4981747;28;20198;-72
2021/12/29 04:53:30;;;;;;;2.20;0.43;;;28.20;99.90;;;;;;5000854;28;20538;-72
2021/12/29 04:55:58;;;;;;;3.03;0.40;;;28.00;99.90;;;;;;4993760;28;20227;-71
2021/12/29 04:58:25;;;;;;;1.07;0.33;;;28.50;99.90;;;;;;4993424;28;20179;-72
2021/12/29 05:00:53;;;;;;;1.40;0.40;;;28.80;99.90;;;;;;4993136;28;20181;-72
2021/12/29 05:03:21;;;;;;;1.57;0.50;;;28.30;99.90;;;;;;5002962;28;20584;-71
2021/12/29 05:05:57;;;;;;;2.60;0.77;;;28.30;99.90;;;;;;5012516;28;20182;-72
2021/12/29 05:08:25;;;;;;;1.63;0.50;;;27.70;99.90;;;;;;5012525;28;20208;-71
2021/12/29 05:11:07;;;;;;;2.93;0.50;;;28.30;99.90;;;;;;5012448;28;20177;-71
2021/12/29 05:13:37;;;;;;;2.73;0.50;;;28.10;99.90;;;;;;5003421;28;20175;-71
2021/12/29 05:16:05;;;;;;;2.63;0.70;;;27.10;99.90;;;;;;4993381;28;20525;-71
2021/12/29 05:18:35;;;;;;;0.77;0.37;;;26.60;99.90;;;;;;5002963;28;20725;-72
2021/12/29 05:21:04;;;;;;;1.60;0.33;;;26.60;99.90;;;;;;5012696;28;20174;-72
2021/12/29 05:23:32;;;;;;;1.37;0.50;;;26.90;99.90;;;;;;5001769;28;20245;-72
2021/12/29 05:25:59;;;;;;;2.40;0.57;;;26.60;99.90;;;;;;4993253;28;20171;-71
2021/12/29 05:28:27;;;;;;;2.60;0.50;;;25.80;99.90;;;;;;4993750;28;20178;-73
2021/12/29 05:30:55;;;;;;;2.20;0.40;;;25.90;99.90;;;;;;4992724;28;20246;-71
2021/12/29 05:33:23;;;;;;;3.57;0.80;;;25.40;99.90;;;;;;4986640;28;20240;-71
2021/12/29 05:35:51;;;;;;;3.40;0.70;;;25.30;99.90;;;;;;5013683;28;20186;-71
2021/12/29 05:38:18;;;;;;;2.57;0.43;;;25.00;99.90;;;;;;5013560;28;20206;-71
2021/12/29 05:40:48;;;;;;;3.00;0.60;;;24.70;99.90;;;;;;5013639;28;20240;-71
2021/12/29 05:43:15;;;;;;;2.83;0.93;;;24.80;99.90;;;;;;5012891;28;20201;-71
2021/12/29 05:45:43;;;;;;;3.37;0.60;;;24.90;99.90;;;;;;5017650;28;20277;-71
2021/12/29 05:48:10;;;;;;;2.23;0.70;;;24.40;99.90;;;;;;5017064;28;20268;-71
2021/12/29 05:50:38;;;;;;;4.43;0.90;;;24.70;99.90;;;;;;5014200;28;20222;-69
2021/12/29 05:53:05;;;;;;;4.70;0.70;;;24.80;99.90;;;;;;5007345;28;20186;-70
2021/12/29 05:55:33;;;;;;;1.20;0.60;;;24.60;99.90;;;;;;5005036;28;20235;-71
2021/12/29 05:58:00;;;;;;;2.80;0.70;;;24.40;99.90;;;;;;5004836;28;20196;-71
2021/12/29 06:00:28;;;;;;;2.60;0.63;;;24.10;99.90;;;;;;5006007;28;20700;-70
2021/12/29 06:02:56;;;;;;;1.83;0.60;;;24.40;99.90;;;;;;5005506;28;20201;-72
2021/12/29 06:05:24;;;;;;;2.60;0.50;;;25.10;99.90;;;;;;5007575;28;20202;-71
2021/12/29 06:07:52;;;;;;;6.00;0.57;;;26.00;99.90;;;;;;4994975;28;20182;-71
2021/12/29 06:10:19;;;;;;;4.00;0.60;;;26.70;99.90;;;;;;4994445;28;20244;-72
2021/12/29 06:12:47;;;;;;;1.10;0.40;;;26.80;99.90;;;;;;4996349;28;20186;-72
2021/12/29 06:15:15;;;;;;;1.43;0.40;;;26.60;99.90;;;;;;4994739;28;20186;-71
2021/12/29 06:17:42;;;;;;;2.27;0.60;;;25.60;99.90;;;;;;5007687;28;20721;-71
2021/12/29 06:20:12;;;;;;;1.43;0.43;;;25.00;99.90;;;;;;4996362;28;20197;-70
2021/12/29 06:22:41;;;;;;;2.50;0.70;;;24.40;99.90;;;;;;5008534;28;20542;-71
2021/12/29 06:25:11;;;;;;;1.97;0.50;;;24.30;99.90;;;;;;4994574;28;20711;-71
2021/12/29 06:27:40;;;;;;;0.97;0.60;;;24.20;99.90;;;;;;4994885;28;20178;-72
2021/12/29 06:30:09;;;;;;;2.80;0.50;;;24.20;99.90;;;;;;4995342;28;20230;-71
2021/12/29 06:32:38;;;;;;;1.37;0.50;;;25.10;99.90;;;;;;4996058;28;20178;-70
2021/12/29 06:35:06;;;;;;;2.43;0.63;;;25.90;99.90;;;;;;4994769;28;20183;-71
2021/12/29 06:37:34;;;;;;;1.90;0.57;;;25.70;99.90;;;;;;4994497;28;20197;-71
2021/12/29 06:40:02;;;;;;;1.00;0.50;;;25.10;99.90;;;;;;4994438;28;20190;-70
2021/12/29 06:42:29;;;;;;;2.27;0.60;;;24.70;99.90;;;;;;4997527;28;20522;-70
2021/12/29 06:44:57;;;;;;;3.13;0.63;;;24.50;99.90;;;;;;5038837;28;20169;-72
2021/12/29 06:47:26;;;;;;;4.03;0.87;;;24.30;99.90;;;;;;5039191;28;20174;-72
2021/12/29 06:49:53;;;;;;;2.00;0.67;;;24.20;99.90;;;;;;5025487;28;20274;-71
2021/12/29 06:52:21;;;;;;;2.33;0.43;;;24.00;99.90;;;;;;4996446;28;20205;-71
2021/12/29 06:54:48;;;;;;;2.33;0.60;;;23.60;99.90;;;;;;5013647;28;20573;-71
2021/12/29 06:57:16;;;;;;;0.57;0.50;;;23.50;99.90;;;;;;5012773;28;20691;-73
2021/12/29 06:59:43;;;;;;;1.70;0.80;;;23.40;99.90;;;;;;5013474;28;20366;-71
2021/12/29 07:02:11;;;;;;;4.43;0.90;;;23.30;99.90;;;;;;5010903;28;20915;-71
2021/12/29 07:04:39;;;;;;;5.47;0.90;;;23.50;99.90;;;;;;4993825;28;20597;-71
2021/12/29 07:07:06;;;;;;;3.43;0.70;;;23.40;99.90;;;;;;4993890;28;20222;-71
2021/12/29 07:09:34;;;;;;;2.47;0.60;;;23.60;99.90;;;;;;4993696;28;20224;-72
2021/12/29 07:12:02;;;;;;;4.70;0.77;;;23.60;99.90;;;;;;4994011;28;20182;-70
2021/12/29 07:14:29;;;;;;;3.63;0.77;;;23.90;99.90;;;;;;4995741;28;20190;-72
2021/12/29 07:16:56;;;;;;;4.20;0.50;;;24.30;99.90;;;;;;5013401;28;20522;-72
2021/12/29 07:19:24;;;;;;;1.60;0.63;;;24.80;99.90;;;;;;5011338;28;20193;-71
2021/12/29 07:21:51;;;;;;;1.27;0.53;;;24.60;99.90;;;;;;5013089;28;20178;-73
2021/12/29 07:24:19;;;;;;;0.57;0.43;;;24.60;99.90;;;;;;4993889;28;20553;-72
2021/12/29 07:26:46;;;;;;;3.93;0.70;;;24.70;99.90;;;;;;4994285;28;20309;-73
2021/12/29 07:29:14;;;;;;;4.27;0.77;;;24.90;99.90;;;;;;5001919;28;20287;-71
2021/12/29 07:31:42;;;;;;;5.30;0.60;;;25.10;99.90;;;;;;5012615;28;20232;-71
2021/12/29 07:34:09;;;;;;;5.37;0.70;;;25.20;99.90;;;;;;4999075;28;20174;-71
2021/12/29 07:36:37;;;;;;;1.93;0.50;;;24.90;99.90;;;;;;4993268;28;20314;-71
2021/12/29 07:39:05;;;;;;;4.10;1.43;;;25.00;99.90;;;;;;5006946;28;20209;-73
2021/12/29 07:41:32;;;;;;;2.37;0.60;;;24.90;99.90;;;;;;4993244;28;20272;-72
2021/12/29 07:43:59;;;;;;;2.83;0.60;;;24.50;99.90;;;;;;5011350;28;20173;-71
2021/12/29 07:46:32;;;;;;;1.10;0.40;;;24.50;99.90;;;;;;5012724;28;20652;-71
2021/12/29 07:49:00;;;;;;;38.23;10.17;;;24.60;99.90;;;;;;5012661;28;20254;-72
2021/12/29 07:51:27;;;;;;;7.77;2.27;;;24.80;99.90;;;;;;5012605;28;20166;-72
2021/12/29 07:53:55;;;;;;;3.93;0.70;;;24.80;99.90;;;;;;5012693;28;20184;-73
2021/12/29 07:56:22;;;;;;;1.80;0.60;;;24.80;99.90;;;;;;5000643;28;20327;-71
2021/12/29 07:58:50;;;;;;;4.30;0.97;;;24.70;99.90;;;;;;5033801;28;20180;-71
2021/12/29 08:01:18;;;;;;;1.23;0.50;;;24.70;99.90;;;;;;5030876;28;20187;-72
2021/12/29 08:03:45;;;;;;;3.13;1.07;;;24.80;99.90;;;;;;5014168;28;20181;-73
2021/12/29 08:06:15;;;;;;;4.07;1.07;;;24.50;99.90;;;;;;5014358;28;20189;-70
2021/12/29 08:08:42;;;;;;;3.90;0.70;;;24.10;99.90;;;;;;5014540;28;20193;-72
2021/12/29 08:11:10;;;;;;;2.80;0.63;;;24.10;99.90;;;;;;5009233;28;20218;-71
2021/12/29 08:13:37;;;;;;;3.93;0.50;;;24.00;99.90;;;;;;4994116;28;20521;-72
2021/12/29 08:16:05;;;;;;;8.13;0.80;;;23.90;99.90;;;;;;5006166;28;20193;-72
2021/12/29 08:18:32;;;;;;;2.40;0.57;;;23.70;99.90;;;;;;5013396;28;20665;-70
2021/12/29 08:21:00;;;;;;;0.97;0.50;;;23.80;99.90;;;;;;5010589;28;20220;-72
2021/12/29 08:23:27;;;;;;;5.57;0.60;;;23.80;99.90;;;;;;5009619;28;20185;-72
2021/12/29 08:25:55;;;;;;;1.33;0.70;;;23.70;99.90;;;;;;5001454;28;20196;-71
2021/12/29 08:28:22;;;;;;;2.10;0.50;;;23.50;99.90;;;;;;5003221;28;20201;-72
2021/12/29 08:30:51;;;;;;;2.47;0.60;;;23.30;99.90;;;;;;5002593;28;20240;-71
2021/12/29 08:33:19;;;;;;;7.17;1.03;;;23.00;99.90;;;;;;5003182;28;20178;-72
2021/12/29 08:35:47;;;;;;;5.77;0.90;;;22.80;99.90;;;;;;5002832;28;20546;-70
2021/12/29 08:38:15;;;;;;;0.73;0.47;;;22.70;99.90;;;;;;5005486;28;20636;-71
2021/12/29 08:40:42;;;;;;;2.70;0.50;;;22.40;99.90;;;;;;4994239;28;20282;-71
2021/12/29 08:43:10;;;;;;;1.97;0.60;;;22.30;99.90;;;;;;4994553;28;20654;-72
2021/12/29 08:45:38;;;;;;;4.57;0.63;;;22.10;99.90;;;;;;4994001;28;20182;-71
2021/12/29 08:48:06;;;;;;;4.50;0.53;;;22.00;99.90;;;;;;4991407;28;20185;-73
2021/12/29 08:50:34;;;;;;;3.87;0.67;;;22.00;99.90;;;;;;5012679;28;20227;-69
2021/12/29 08:53:04;;;;;;;2.60;0.97;;;21.90;99.90;;;;;;5004156;28;20262;-73
2021/12/29 08:55:33;;;;;;;3.00;0.80;;;21.80;99.90;;;;;;5001718;28;20651;-71
2021/12/29 08:58:01;;;;;;;2.63;0.60;;;21.80;99.90;;;;;;5026330;28;20686;-72
2021/12/29 09:00:29;;;;;;;2.07;0.80;;;21.70;99.90;;;;;;5001932;28;20268;-72
2021/12/29 09:02:56;;;;;;;3.67;0.70;;;21.60;99.90;;;;;;5008342;28;20190;-71
2021/12/29 09:05:23;;;;;;;3.30;0.80;;;21.50;99.90;;;;;;4998554;28;20530;-71
2021/12/29 09:07:51;;;;;;;5.03;0.80;;;21.40;99.90;;;;;;4993514;28;20252;-73
2021/12/29 09:10:20;;;;;;;2.37;0.90;;;21.30;99.90;;;;;;4994557;28;20676;-72
2021/12/29 09:12:49;;;;;;;2.30;0.70;;;21.30;99.90;;;;;;5000472;28;20577;-71
2021/12/29 09:15:18;;;;;;;7.60;1.20;;;21.20;99.90;;;;;;4993711;28;20202;-72
2021/12/29 09:17:46;;;;;;;3.03;0.73;;;21.10;99.90;;;;;;4993852;28;20170;-72
2021/12/29 09:20:24;;;;;;;2.07;1.00;;;21.10;99.90;;;;;;4996205;28;20861;-70
2021/12/29 09:22:54;;;;;;;6.00;1.10;;;21.00;99.90;;;;;;5009750;28;20555;-71
2021/12/29 09:25:23;;;;;;;4.07;0.90;;;21.00;99.90;;;;;;5018065;28;20674;-72
2021/12/29 09:27:54;;;;;;;3.30;0.93;;;20.90;99.90;;;;;;5017279;28;20192;-72
2021/12/29 09:30:25;;;;;;;2.97;0.90;;;20.80;99.90;;;;;;5015685;28;20622;-70
2021/12/29 09:32:54;;;;;;;3.33;0.90;;;20.80;99.90;;;;;;5004343;28;20655;-71
2021/12/29 09:35:23;;;;;;;1.60;1.00;;;20.70;99.90;;;;;;4994613;28;20186;-71
2021/12/29 09:37:52;;;;;;;4.60;1.20;;;20.70;99.90;;;;;;4978231;28;20189;-71
2021/12/29 09:40:22;;;;;;;1.37;0.80;;;20.60;99.90;;;;;;5007985;28;20186;-72
2021/12/29 09:42:52;;;;;;;1.23;0.80;;;20.50;99.90;;;;;;5002821;28;20196;-72
2021/12/29 09:45:21;;;;;;;4.57;1.20;;;20.40;99.90;;;;;;5006682;28;20193;-73
2021/12/29 09:47:49;;;;;;;6.43;1.20;;;20.30;99.90;;;;;;4996838;28;20196;-72
2021/12/29 09:50:19;;;;;;;2.27;0.93;;;20.30;99.90;;;;;;4995631;28;20259;-73
2021/12/29 09:52:47;;;;;;;4.90;1.20;;;20.20;99.90;;;;;;5005984;28;20188;-71
2021/12/29 09:55:17;;;;;;;4.00;1.10;;;20.20;99.90;;;;;;5015505;28;20201;-71
2021/12/29 09:57:48;;;;;;;4.67;1.10;;;20.20;99.90;;;;;;5015830;28;20202;-73
2021/12/29 10:00:29;;;;;;;3.70;1.20;;;20.10;99.90;;;;;;4986676;28;20209;-73
2021/12/29 10:03:00;;;;;;;3.33;0.90;;;20.00;99.90;;;;;;5008636;28;20182;-72
2021/12/29 10:05:28;;;;;;;1.37;0.70;;;20.00;99.90;;;;;;5015863;28;20186;-73
2021/12/29 10:08:06;;;;;;;4.87;1.30;;;20.00;99.90;;;;;;5016252;28;20549;-73
2021/12/29 10:10:37;;;;;;;4.10;1.30;;;19.90;99.90;;;;;;5016123;28;20213;-74
2021/12/29 10:13:07;;;;;;;1.80;0.90;;;19.90;99.90;;;;;;5014780;28;20183;-73
2021/12/29 10:15:41;;;;;;;5.40;0.83;;;19.90;99.90;;;;;;5015430;28;20204;-73
2021/12/29 10:18:11;;;;;;;9.90;1.00;;;19.80;99.90;;;;;;5016450;28;20176;-72
2021/12/29 10:21:06;;;;;;;3.87;1.07;;;19.70;99.90;;;;;;5016051;28;20231;-72
2021/12/29 10:23:37;;;;;;;6.20;0.83;;;19.60;99.90;;;;;;4993012;28;20257;-73
2021/12/29 10:26:15;;;;;;;1.43;0.80;;;19.50;99.90;;;;;;4997197;28;20183;-73
2021/12/29 10:28:47;;;;;;;3.13;0.90;;;19.50;99.90;;;;;;5013142;28;20181;-73
2021/12/29 10:31:28;;;;;;;3.93;1.07;;;19.40;99.90;;;;;;4996366;28;20234;-72
2021/12/29 10:33:57;;;;;;;3.27;0.70;;;19.30;99.90;;;;;;5002320;28;20183;-73
2021/12/29 10:36:32;;;;;;;2.13;1.10;;;19.30;99.90;;;;;;4999305;28;20179;-73
2021/12/29 10:39:05;;;;;;;3.27;0.97;;;19.20;99.90;;;;;;5006743;28;20675;-71
2021/12/29 10:41:44;;;;;;;4.53;1.70;;;19.10;99.90;;;;;;4978695;28;20176;-70
2021/12/29 10:44:13;;;;;;;8.00;2.30;;;19.10;99.90;;;;;;5012224;28;20193;-71
2021/12/29 10:46:40;;;;;;;4.03;1.40;;;19.00;99.90;;;;;;4999702;28;20315;-72
2021/12/29 10:49:09;;;;;;;3.00;1.47;;;18.90;99.90;;;;;;4996330;28;20253;-72
2021/12/29 10:51:40;;;;;;;2.70;1.10;;;18.80;99.90;;;;;;4996107;28;20183;-72
2021/12/29 10:54:11;;;;;;;3.20;1.07;;;18.80;99.90;;;;;;4995818;28;20184;-72
2021/12/29 10:56:42;;;;;;;3.70;1.23;;;18.70;99.90;;;;;;5013688;28;20179;-73
2021/12/29 10:59:20;;;;;;;5.27;1.43;;;18.70;99.90;;;;;;5015256;28;20196;-72
2021/12/29 11:01:48;;;;;;;3.83;0.93;;;18.60;99.90;;;;;;5014757;28;20189;-72
2021/12/29 11:04:17;;;;;;;2.33;0.80;;;18.50;99.90;;;;;;5013733;28;20211;-73
2021/12/29 11:06:47;;;;;;;3.63;0.67;;;18.40;99.90;;;;;;5015288;28;20178;-73
2021/12/29 11:09:16;;;;;;;2.20;0.83;;;18.40;99.90;;;;;;5013163;28;20198;-72
2021/12/29 11:11:46;;;;;;;2.37;1.00;;;18.30;99.90;;;;;;4995751;28;20265;-73
2021/12/29 11:14:25;;;;;;;3.27;0.90;;;18.20;99.90;;;;;;4995562;28;20181;-73
2021/12/29 11:17:20;;;;;;;2.17;1.00;;;18.10;99.90;;;;;;4995576;28;20178;-73
2021/12/29 11:19:59;;;;;;;4.37;1.27;;;18.10;99.90;;;;;;4997044;28;20644;-72
2021/12/29 11:22:30;;;;;;;2.50;0.97;;;18.10;99.90;;;;;;5014366;28;20178;-72
2021/12/29 11:25:04;;;;;;;2.27;1.00;;;18.00;99.90;;;;;;4995545;28;20275;-73
2021/12/29 11:27:37;;;;;;;2.93;1.20;;;18.00;99.90;;;;;;4996125;28;20221;-72
2021/12/29 11:30:04;;;;;;;2.37;0.90;;;17.90;99.90;;;;;;5008162;28;20238;-73
2021/12/29 11:32:38;;;;;;;3.83;1.20;;;17.80;99.90;;;;;;4995635;28;20201;-73
2021/12/29 11:35:20;;;;;;;2.80;1.10;;;17.80;99.90;;;;;;4995133;28;20213;-73
2021/12/29 11:37:52;;;;;;;6.23;0.97;;;17.80;99.90;;;;;;4995536;28;20225;-73
2021/12/29 11:40:24;;;;;;;1.47;1.10;;;17.70;99.90;;;;;;5004916;28;20624;-73
2021/12/29 11:42:52;;;;;;;1.60;1.00;;;17.60;99.90;;;;;;4996821;28;20194;-71
2021/12/29 11:45:20;;;;;;;2.97;1.17;;;17.60;99.90;;;;;;5014679;28;20174;-74
2021/12/29 11:47:50;;;;;;;2.33;1.17;;;17.50;99.90;;;;;;5020467;28;20181;-72
2021/12/29 11:50:35;;;;;;;2.13;0.80;;;17.50;99.90;;;;;;5019012;28;20269;-73
2021/12/29 11:53:07;;;;;;;5.93;1.73;;;17.50;99.90;;;;;;5006561;28;20203;-72
2021/12/29 11:55:49;;;;;;;3.80;1.43;;;17.50;99.90;;;;;;4995979;28;20209;-72
2021/12/29 11:58:24;;;;;;;4.50;1.20;;;17.40;99.90;;;;;;4994867;28;20311;-72
2021/12/29 12:01:29;;;;;;;3.20;1.60;;;17.40;99.90;;;;;;5008235;28;20187;-73
2021/12/29 12:04:02;;;;;;;3.00;1.30;;;17.40;99.90;;;;;;4950672;28;20769;-72
2021/12/29 12:06:38;;;;;;;4.73;1.50;;;17.30;99.90;;;;;;4987160;28;20652;-74
2021/12/29 12:09:11;;;;;;;4.60;1.43;;;17.30;99.90;;;;;;4994573;28;20221;-73
2021/12/29 12:11:45;;;;;;;6.20;1.43;;;17.30;99.90;;;;;;5013613;28;20182;-72
2021/12/29 12:14:42;;;;;;;4.57;1.93;;;17.30;99.90;;;;;;5008310;28;20185;-72
2021/12/29 12:17:21;;;;;;;4.17;1.37;;;17.20;99.90;;;;;;5005525;28;20195;-72
2021/12/29 12:20:14;;;;;;;2.47;1.20;;;17.20;99.90;;;;;;5003336;28;20182;-73
2021/12/29 12:22:46;;;;;;;2.43;1.23;;;17.20;99.90;;;;;;4997350;28;20171;-72
2021/12/29 12:25:17;;;;;;;4.00;1.60;;;17.10;99.90;;;;;;4994762;28;20190;-72
2021/12/29 12:27:50;;;;;;;6.13;1.40;;;17.10;99.90;;;;;;5008623;28;20189;-74
2021/12/29 12:30:27;;;;;;;2.53;1.27;;;17.10;99.90;;;;;;5015904;28;20267;-73
2021/12/29 12:32:57;;;;;;;7.90;1.40;;;17.20;99.90;;;;;;5013995;28;20193;-71
2021/12/29 12:35:48;;;;;;;6.90;1.40;;;17.20;99.90;;;;;;5014199;28;20328;-73
2021/12/29 12:38:19;;;;;;;5.13;1.33;;;17.20;99.90;;;;;;4995637;28;20186;-73
2021/12/29 12:40:59;;;;;;;4.37;1.30;;;17.20;99.90;;;;;;4996693;28;20225;-73
2021/12/29 12:43:27;;;;;;;2.57;1.13;;;17.10;99.90;;;;;;4994316;28;20174;-72
2021/12/29 12:45:55;;;;;;;4.23;1.63;;;17.10;99.90;;;;;;5003122;28;20178;-73
2021/12/29 12:48:28;;;;;;;2.50;1.20;;;17.10;99.90;;;;;;4993891;28;20183;-73
2021/12/29 12:50:58;;;;;;;5.10;1.47;;;17.10;99.90;;;;;;4986189;28;20246;-72
2021/12/29 12:53:36;;;;;;;3.73;1.27;;;17.10;99.90;;;;;;5004141;28;20181;-73
2021/12/29 12:56:07;;;;;;;3.00;1.20;;;17.10;99.90;;;;;;5005344;28;20182;-73
2021/12/29 12:58:44;;;;;;;5.60;1.50;;;17.10;99.90;;;;;;5007707;28;20228;-73
2021/12/29 13:01:15;;;;;;;3.43;1.43;;;17.00;99.90;;;;;;5008036;28;20201;-72